Butler, Indiana
Current Conditions -  °F | °C
As of 9:55 PM on Thursday 27 Nov 2014 (Local Time) from KGWB Reporting Station
Light Snow Light Snow  
Wind Chill: -6°   Ceiling: 2400
Heat Index: -3°   Visibility: 4mi
Dew Point: -6°   Wind: 5mph
Humidity: 80%   Direction: 320°NW
Pressure: 30.34"   Gusts: NA
Location:  41.43°N, 84.87°W
Report Text: KGWB 280255Z AUTO 32004KT 4SM -SN SCT017 OVC024 M03/M06 A3034 RMK AO2
Loading
Personal Weather Stations






























Interactive Weather Map New forecast layout! Learn more

10-Day Weather Forecast

Advertisements
Track Severe Weather on mobile